»·PEaware :: CAX948 KONT-KGSO

CAX948 :: KONT-KGSO

FLIGHT INFORMATION

Flight Status: Arrived
Operator:
California Airlines (website)
More flights by this operator :: More flights under this callsign
Pilot: Tony D. (5369)
Aircraft: BOEING 727-200
(B722)
More flights by this aircraft type
Origin: KONT Ontario Intl
United States
Destination: KGSO Piedmont Triad Intl
United States
More flights between these airports :: More routes between these airports
Route: NIKKL1 TRM J78 PKE J96 GUP J8 IFI TUL J46 VXV BROOK BROOK3
File this flight plan on PilotEdge
Remarks:
Altitude:
(Current/Filed)
32,000ft
Speed:
(Current/Filed)
479kts
Departed: 23-Mar-19 05:00 AM
Arrived: 23-Mar-19 08:58 AM
Distance/Time
Traveled:
1841nm/3:57
Distance/Time
To Go:
Arrived

Flight Plot

Page will automatically refresh every two minutes.


Map Options




Map Legend


Flown Route
Filed Route
Departure Airport
Arrival Airport
Navaid (VOR, NDB)
Fix

Horizontal Profiles

Position Reports

Time Latitude Longitude Heading Altitude Ground
Speed
23-Mar-19 04:38 34.059754 -117.591409 359 943ft 0kts
23-Mar-19 04:39 34.059754 -117.591409 359 943ft 0kts
23-Mar-19 04:40 34.059754 -117.591409 359 943ft 0kts
23-Mar-19 04:41 34.059754 -117.591409 359 943ft 0kts
23-Mar-19 04:42 34.059754 -117.591409 359 943ft 0kts
23-Mar-19 04:43 34.059754 -117.591409 359 943ft 0kts
23-Mar-19 04:44 34.059754 -117.591409 359 943ft 0kts
23-Mar-19 04:45 34.059754 -117.591409 359 943ft 0kts
23-Mar-19 04:46 34.059754 -117.591409 359 943ft 0kts
23-Mar-19 04:47 34.059754 -117.591409 359 943ft 0kts
23-Mar-19 04:48 34.059752 -117.591409 359 943ft 0kts
23-Mar-19 04:49 34.059192 -117.591525 38 943ft 2kts
23-Mar-19 04:50 34.059001 -117.592040 90 942ft 0kts
23-Mar-19 04:51 34.059001 -117.592043 90 942ft 0kts
23-Mar-19 04:52 34.059001 -117.592043 90 942ft 0kts
23-Mar-19 04:53 34.059001 -117.592043 90 942ft 0kts
23-Mar-19 04:54 34.059001 -117.592043 90 942ft 0kts
23-Mar-19 04:55 34.059001 -117.592043 90 942ft 0kts
23-Mar-19 04:56 34.059006 -117.588875 89 943ft 12kts
23-Mar-19 04:57 34.059007 -117.585023 89 944ft 10kts
23-Mar-19 04:58 34.057862 -117.582497 180 941ft 11kts
23-Mar-19 04:59 34.056860 -117.587243 270 938ft 72kts
23-Mar-19 05:00 34.056404 -117.632859 269 1193ft 161kts
23-Mar-19 05:01 34.026007 -117.669958 155 1971ft 221kts
23-Mar-19 05:02 33.983637 -117.608416 127 4046ft 278kts
23-Mar-19 05:03 33.922761 -117.535263 137 6099ft 270kts
23-Mar-19 05:04 33.860576 -117.480774 145 7736ft 289kts
23-Mar-19 05:05 33.793554 -117.424494 147 10809ft 301kts
23-Mar-19 05:06 33.729049 -117.356588 126 13494ft 319kts
23-Mar-19 05:07 33.717515 -117.237177 92 14801ft 383kts
23-Mar-19 05:08 33.709858 -117.106851 96 17189ft 400kts
23-Mar-19 05:09 33.699903 -116.971136 92 19361ft 415kts
23-Mar-19 05:10 33.686152 -116.832443 98 21171ft 427kts
23-Mar-19 05:11 33.673223 -116.687924 97 22813ft 442kts
23-Mar-19 05:12 33.660618 -116.538633 97 24290ft 456kts
23-Mar-19 05:13 33.647575 -116.384171 97 25553ft 470kts
23-Mar-19 05:14 33.633618 -116.226277 98 26734ft 481kts
23-Mar-19 05:15 33.629766 -116.065770 71 27714ft 492kts
23-Mar-19 05:16 33.705460 -115.931091 63 28439ft 497kts
23-Mar-19 05:17 33.751446 -115.773302 68 29154ft 504kts
23-Mar-19 05:18 33.801276 -115.614731 67 29858ft 511kts
23-Mar-19 05:19 33.854720 -115.450315 66 30532ft 518kts
23-Mar-19 05:21 33.907189 -115.287316 67 31099ft 524kts
23-Mar-19 05:22 33.959888 -115.123234 67 31101ft 527kts
23-Mar-19 05:23 34.013169 -114.957834 67 31103ft 529kts
23-Mar-19 05:24 34.066406 -114.791692 67 31105ft 532kts
23-Mar-19 05:25 34.116521 -114.622671 80 31101ft 535kts
23-Mar-19 05:26 34.149174 -114.452762 55 31147ft 525kts
23-Mar-19 05:27 34.202507 -114.288360 73 31114ft 531kts
23-Mar-19 05:28 34.243817 -114.117199 71 31115ft 532kts
23-Mar-19 05:29 34.308704 -113.958036 73 31134ft 530kts
23-Mar-19 05:30 34.353525 -113.787911 70 31122ft 532kts
23-Mar-19 05:31 34.401454 -113.618408 71 31119ft 535kts
23-Mar-19 05:32 34.441249 -113.446193 70 31150ft 530kts
23-Mar-19 05:33 34.486864 -113.276588 70 31190ft 526kts
23-Mar-19 05:34 34.532529 -113.108877 70 31199ft 521kts
23-Mar-19 05:35 34.577914 -112.942545 69 31202ft 521kts
23-Mar-19 05:36 34.623328 -112.775174 69 31205ft 522kts
23-Mar-19 05:37 34.668487 -112.607631 69 31207ft 524kts
23-Mar-19 05:38 34.713568 -112.438308 70 31210ft 529kts
23-Mar-19 05:39 34.753048 -112.264425 72 31199ft 533kts
23-Mar-19 05:40 34.793192 -112.090766 72 31208ft 536kts
23-Mar-19 05:40 34.827024 -111.944847 72 31212ft 539kts
23-Mar-19 05:42 34.874399 -111.739078 72 31214ft 543kts
23-Mar-19 05:43 34.915016 -111.561314 72 31220ft 546kts
23-Mar-19 05:43 34.948650 -111.413058 72 31225ft 544kts
23-Mar-19 05:45 34.994441 -111.206182 73 31206ft 540kts
23-Mar-19 05:46 35.034591 -111.030667 69 31200ft 535kts
23-Mar-19 05:46 35.053283 -110.881304 77 31206ft 531kts
23-Mar-19 05:47 35.086562 -110.707651 70 31202ft 526kts
23-Mar-19 05:48 35.126178 -110.534444 70 31208ft 525kts
23-Mar-19 05:49 35.164231 -110.362066 71 31211ft 526kts
23-Mar-19 05:50 35.201069 -110.188056 71 31199ft 525kts
23-Mar-19 05:51 35.238358 -110.014334 71 31212ft 524kts
23-Mar-19 05:52 35.275314 -109.841304 71 31214ft 524kts
23-Mar-19 05:53 35.311938 -109.668522 71 31198ft 525kts
23-Mar-19 05:54 35.348276 -109.495778 71 31199ft 525kts
23-Mar-19 05:55 35.384437 -109.322047 73 31189ft 526kts
23-Mar-19 05:56 35.419620 -109.148222 72 31191ft 525kts
23-Mar-19 05:57 35.455517 -108.973011 70 31196ft 524kts
23-Mar-19 05:58 35.480419 -108.796285 81 31203ft 530kts
23-Mar-19 05:59 35.490573 -108.616276 81 31205ft 530kts
23-Mar-19 06:00 35.500482 -108.435265 81 31209ft 531kts
23-Mar-19 06:01 35.509504 -108.256402 82 31205ft 531kts
23-Mar-19 06:02 35.518653 -108.075194 82 31209ft 531kts
23-Mar-19 06:03 35.527755 -107.893731 82 31211ft 531kts
23-Mar-19 06:04 35.536514 -107.713328 82 31213ft 531kts
23-Mar-19 06:05 35.545074 -107.531579 82 31216ft 532kts
23-Mar-19 06:06 35.553387 -107.349733 83 31202ft 533kts
23-Mar-19 06:07 35.560828 -107.167443 83 31180ft 533kts
23-Mar-19 06:08 35.568539 -106.985342 82 31180ft 533kts
23-Mar-19 06:09 35.584979 -106.806682 65 31206ft 516kts
23-Mar-19 06:10 35.604951 -106.629424 80 31183ft 530kts
23-Mar-19 06:11 35.613323 -106.447343 81 31174ft 536kts
23-Mar-19 06:12 35.620128 -106.263184 82 31148ft 542kts
23-Mar-19 06:13 35.626912 -106.077030 82 31156ft 544kts
23-Mar-19 06:14 35.633566 -105.892402 82 31154ft 541kts
23-Mar-19 06:15 35.639888 -105.707589 81 31119ft 538kts
23-Mar-19 06:16 35.645949 -105.523736 82 31068ft 537kts
23-Mar-19 06:17 35.651623 -105.339793 83 31071ft 537kts
23-Mar-19 06:18 35.656712 -105.156183 83 31059ft 538kts
23-Mar-19 06:19 35.666353 -104.974067 81 31067ft 541kts
23-Mar-19 06:20 35.676623 -104.789087 81 31063ft 541kts
23-Mar-19 06:21 35.686625 -104.602682 81 31068ft 540kts
23-Mar-19 06:22 35.696296 -104.417429 81 31071ft 541kts
23-Mar-19 06:23 35.705164 -104.232150 82 31034ft 541kts
23-Mar-19 06:24 35.714074 -104.047866 81 31022ft 540kts
23-Mar-19 06:25 35.722826 -103.863522 81 31028ft 539kts
23-Mar-19 06:26 35.731311 -103.678632 81 31030ft 540kts
23-Mar-19 06:27 35.739519 -103.493889 82 31027ft 540kts
23-Mar-19 06:28 35.747311 -103.308151 83 31019ft 541kts
23-Mar-19 06:29 35.754670 -103.123127 83 31029ft 539kts
23-Mar-19 06:30 35.761993 -102.938570 86 31038ft 538kts
23-Mar-19 06:31 35.768962 -102.754611 86 31037ft 536kts
23-Mar-19 06:32 35.772869 -102.571923 92 31051ft 533kts
23-Mar-19 06:33 35.774676 -102.390318 86 31040ft 529kts
23-Mar-19 06:34 35.780373 -102.208658 86 31032ft 524kts
23-Mar-19 06:35 35.786499 -102.030548 86 31034ft 520kts
23-Mar-19 06:36 35.792469 -101.852827 86 31035ft 516kts
23-Mar-19 06:37 35.798057 -101.676967 86 31042ft 513kts
23-Mar-19 06:38 35.803343 -101.502056 86 31057ft 509kts
23-Mar-19 06:39 35.804694 -101.328572 95 31048ft 507kts
23-Mar-19 06:40 35.790448 -101.156135 94 31047ft 503kts
23-Mar-19 06:41 35.777840 -100.984218 95 31045ft 500kts
23-Mar-19 06:42 35.765190 -100.813624 98 31050ft 496kts
23-Mar-19 06:43 35.752244 -100.644366 98 31040ft 494kts
23-Mar-19 06:44 35.739303 -100.476719 98 31040ft 491kts
23-Mar-19 06:45 35.726000 -100.309740 99 31032ft 488kts
23-Mar-19 06:46 35.712371 -100.144078 99 31033ft 486kts
23-Mar-19 06:47 35.698866 -99.978808 99 31031ft 486kts
23-Mar-19 06:48 35.685085 -99.813109 99 31021ft 489kts
23-Mar-19 06:49 35.681423 -99.645738 88 31025ft 494kts
23-Mar-19 06:50 35.674242 -99.479574 108 31024ft 484kts
23-Mar-19 06:51 35.637086 -99.321782 93 31028ft 491kts
23-Mar-19 06:52 35.652245 -99.153472 83 31035ft 500kts
23-Mar-19 06:53 35.675259 -98.982640 85 31043ft 508kts
23-Mar-19 06:54 35.698831 -98.809691 87 31056ft 514kts
23-Mar-19 06:55 35.722322 -98.635214 86 31055ft 520kts
23-Mar-19 06:56 35.746015 -98.457802 86 31054ft 525kts
23-Mar-19 06:57 35.768880 -98.281951 88 31030ft 529kts
23-Mar-19 06:58 35.792147 -98.101788 87 31016ft 533kts
23-Mar-19 06:59 35.815509 -97.920711 87 31106ft 534kts
23-Mar-19 07:00 35.838562 -97.739863 87 31126ft 536kts
23-Mar-19 07:01 35.861594 -97.557852 85 31135ft 536kts
23-Mar-19 07:02 35.892410 -97.380424 86 31141ft 526kts
23-Mar-19 07:03 35.922867 -97.203206 83 31135ft 527kts
23-Mar-19 07:04 35.957209 -97.028205 80 31130ft 525kts
23-Mar-19 07:05 35.991758 -96.853467 79 31129ft 523kts
23-Mar-19 07:06 36.026033 -96.678403 79 31133ft 521kts
23-Mar-19 07:07 36.059849 -96.504657 79 31132ft 523kts
23-Mar-19 07:08 36.093688 -96.329000 80 31126ft 522kts
23-Mar-19 07:09 36.127600 -96.154232 80 31111ft 519kts
23-Mar-19 07:10 36.160706 -95.980525 80 31118ft 515kts
23-Mar-19 07:11 36.193222 -95.807320 80 31125ft 512kts
23-Mar-19 07:12 36.210278 -95.634352 96 31127ft 498kts
23-Mar-19 07:13 36.198166 -95.465637 96 31148ft 494kts
23-Mar-19 07:14 36.196021 -95.297468 95 31150ft 492kts
23-Mar-19 07:15 36.194843 -95.128725 95 31164ft 490kts
23-Mar-19 07:16 36.193832 -94.959685 94 31158ft 487kts
23-Mar-19 07:17 36.192602 -94.790961 93 31165ft 488kts
23-Mar-19 07:18 36.191189 -94.622244 93 31187ft 493kts
23-Mar-19 07:19 36.189504 -94.451092 93 31199ft 499kts
23-Mar-19 07:20 36.187294 -94.278527 94 31200ft 504kts
23-Mar-19 07:21 36.184903 -94.104205 93 31207ft 508kts
23-Mar-19 07:22 36.182432 -93.928361 93 31211ft 512kts
23-Mar-19 07:23 36.179612 -93.751191 93 31220ft 517kts
23-Mar-19 07:24 36.176595 -93.572705 93 31250ft 521kts
23-Mar-19 07:25 36.173213 -93.392561 93 31248ft 525kts
23-Mar-19 07:26 36.169210 -93.210421 94 31244ft 528kts
23-Mar-19 07:27 36.177083 -93.028837 90 31248ft 530kts
23-Mar-19 07:28 36.175554 -92.845573 92 31249ft 530kts
23-Mar-19 07:29 36.170897 -92.662038 92 31276ft 528kts
23-Mar-19 07:30 36.165724 -92.480434 92 31283ft 526kts
23-Mar-19 07:31 36.160123 -92.299251 94 31270ft 525kts
23-Mar-19 07:32 36.154140 -92.118560 93 31274ft 524kts
23-Mar-19 07:33 36.148243 -91.938886 93 31296ft 522kts
23-Mar-19 07:34 36.142025 -91.759224 93 31304ft 521kts
23-Mar-19 07:35 36.135608 -91.579306 93 31304ft 520kts
23-Mar-19 07:36 36.128865 -91.400798 93 31307ft 520kts
23-Mar-19 07:37 36.121559 -91.222177 94 31304ft 519kts
23-Mar-19 07:38 36.114324 -91.044267 93 31306ft 518kts
23-Mar-19 07:39 36.113758 -90.867099 88 31313ft 515kts
23-Mar-19 07:40 36.117955 -90.690037 87 31308ft 515kts
23-Mar-19 07:41 36.122522 -90.513167 87 31305ft 516kts
23-Mar-19 07:42 36.126852 -90.336193 88 31315ft 516kts
23-Mar-19 07:43 36.130300 -90.158602 88 31322ft 516kts
23-Mar-19 07:45 36.134061 -89.980985 87 31319ft 515kts
23-Mar-19 07:46 36.137552 -89.804001 88 31324ft 515kts
23-Mar-19 07:47 36.140877 -89.625815 87 31328ft 515kts
23-Mar-19 07:48 36.143922 -89.448637 87 31331ft 516kts
23-Mar-19 07:49 36.146329 -89.270601 88 31325ft 516kts
23-Mar-19 07:50 36.148707 -89.092831 88 31333ft 518kts
23-Mar-19 07:51 36.150905 -88.913315 88 31339ft 522kts
23-Mar-19 07:52 36.152070 -88.731753 90 31343ft 528kts
23-Mar-19 07:53 36.149975 -88.553614 88 31346ft 533kts
23-Mar-19 07:54 36.150024 -88.365056 88 31347ft 538kts
23-Mar-19 07:55 36.149237 -88.181816 88 31342ft 542kts
23-Mar-19 07:56 36.148820 -87.994450 88 31348ft 543kts
23-Mar-19 07:57 36.148190 -87.807201 88 31351ft 544kts
23-Mar-19 07:58 36.147215 -87.619968 88 31352ft 545kts
23-Mar-19 07:59 36.145948 -87.431746 88 31354ft 547kts
23-Mar-19 08:00 36.143984 -87.243621 89 31348ft 547kts
23-Mar-19 08:01 36.142046 -87.055332 89 31356ft 547kts
23-Mar-19 08:02 36.139950 -86.867145 88 31359ft 548kts
23-Mar-19 08:03 36.136857 -86.678466 92 31360ft 549kts
23-Mar-19 08:04 36.123703 -86.488366 93 31369ft 551kts
23-Mar-19 08:04 36.112236 -86.329799 94 31360ft 552kts
23-Mar-19 08:05 36.097816 -86.141340 93 31346ft 545kts
23-Mar-19 08:07 36.081427 -85.924555 93 31348ft 536kts
23-Mar-19 08:08 36.067299 -85.742271 94 31350ft 530kts
23-Mar-19 08:08 36.055374 -85.591341 93 31353ft 526kts
23-Mar-19 08:09 36.040682 -85.412367 94 31354ft 521kts
23-Mar-19 08:10 36.030583 -85.235066 94 31318ft 516kts
23-Mar-19 08:11 36.015533 -85.059645 94 31310ft 511kts
23-Mar-19 08:12 35.999978 -84.885404 94 31315ft 506kts
23-Mar-19 08:13 35.984264 -84.713628 94 31324ft 502kts
23-Mar-19 08:14 35.968336 -84.542758 94 31327ft 499kts
23-Mar-19 08:15 35.952563 -84.373258 94 31354ft 495kts
23-Mar-19 08:16 35.935976 -84.204579 95 31338ft 492kts
23-Mar-19 08:17 35.919761 -84.038017 94 31354ft 487kts
23-Mar-19 08:18 35.903444 -83.872405 95 31366ft 483kts
23-Mar-19 08:19 35.937320 -83.723140 53 31380ft 452kts
23-Mar-19 08:20 36.001277 -83.591279 59 31361ft 451kts
23-Mar-19 08:21 36.044649 -83.446104 63 31362ft 450kts
23-Mar-19 08:22 36.088431 -83.301148 64 31345ft 448kts
23-Mar-19 08:23 36.131475 -83.157765 63 31345ft 443kts
23-Mar-19 08:24 36.174586 -83.015305 63 31347ft 439kts
23-Mar-19 08:25 36.216077 -82.874296 62 31347ft 434kts
23-Mar-19 08:26 36.262908 -82.736140 61 30212ft 464kts
23-Mar-19 08:27 36.312939 -82.588348 61 29781ft 462kts
23-Mar-19 08:28 36.330382 -82.429996 90 29304ft 472kts
23-Mar-19 08:29 36.316531 -82.269160 95 27993ft 463kts
23-Mar-19 08:30 36.299772 -82.113146 95 26698ft 452kts
23-Mar-19 08:31 36.283044 -81.960349 94 25446ft 442kts
23-Mar-19 08:32 36.266508 -81.811307 94 24238ft 432kts
23-Mar-19 08:33 36.250100 -81.665486 94 23008ft 423kts
23-Mar-19 08:34 36.233906 -81.523304 94 21820ft 413kts
23-Mar-19 08:35 36.217939 -81.384649 94 20387ft 398kts
23-Mar-19 08:36 36.201869 -81.248836 94 18947ft 389kts
23-Mar-19 08:37 36.186483 -81.118950 94 17502ft 360kts
23-Mar-19 08:38 36.172516 -81.000849 93 14973ft 341kts
23-Mar-19 08:39 36.158813 -80.885745 93 13665ft 333kts
23-Mar-19 08:40 36.145406 -80.774319 93 11952ft 325kts
23-Mar-19 08:41 36.132202 -80.665322 94 10952ft 317kts
23-Mar-19 08:42 36.119414 -80.560564 94 10220ft 301kts
23-Mar-19 08:43 36.106979 -80.458967 95 9257ft 296kts
23-Mar-19 08:44 36.094591 -80.359055 95 8331ft 290kts
23-Mar-19 08:45 36.081767 -80.259732 96 7539ft 278kts
23-Mar-19 08:46 36.069946 -80.166725 97 6718ft 270kts
23-Mar-19 08:47 36.058378 -80.075444 97 5837ft 265kts
23-Mar-19 08:48 36.047387 -79.989227 97 5346ft 241kts
23-Mar-19 08:49 36.069413 -79.918894 45 4246ft 227kts
23-Mar-19 08:50 36.110903 -79.859512 45 3493ft 232kts
23-Mar-19 08:51 36.149021 -79.805417 45 3483ft 193kts
23-Mar-19 08:52 36.190975 -79.801894 324 3489ft 165kts
23-Mar-19 08:53 36.188225 -79.849164 217 2862ft 150kts
23-Mar-19 08:54 36.160513 -79.880940 229 2130ft 130kts
23-Mar-19 08:55 36.135403 -79.912907 230 1422ft 124kts
23-Mar-19 08:56 36.111114 -79.943925 228 862ft 96kts
23-Mar-19 08:57 36.105029 -79.951730 217 878ft 11kts
23-Mar-19 08:58 36.103164 -79.952767 197 885ft 15kts
23-Mar-19 08:59 36.099015 -79.948745 134 899ft 16kts
23-Mar-19 09:00 36.096506 -79.946734 217 907ft 7kts
23-Mar-19 09:01 36.094975 -79.948612 206 910ft 5kts
23-Mar-19 09:02 36.093702 -79.950449 233 907ft 0kts
23-Mar-19 09:03 36.093702 -79.950449 233 907ft 0kts
23-Mar-19 09:04 36.093702 -79.950449 233 907ft 0kts

Navigation Log

Ident Type
Flight plan parsing failed, navigation log unavailable